logo
Search for airport 
image banner adimage banner adimage banner ad
image banner ad

SVAX - Algodonal

Located in Barinas, Venezuela

ICAO - SVAX, IATA -

Data provided by Airmate  

General information

Coordinates: N8°21'0" W69°31'0"
Elevation is 393 feet MSL.
 
View others Airports in Zulia

Operational data

Special qualification required
Current time UTC:
Current local time:
Weather at : - ( 0 km )
METAR: KSUA 191447Z 08016G23KT 10SM SCT040 30/23 A3004
View NOTAMs / SUP AIP / TFR affecting this airport [VIEW]
Communications frequencies: [VIEW]

Runways:

RWY identifierQFULength (ft)Width (ft)SurfaceLDA (ft)
0700UNK
2500UNK

Airport contact information

Address: Barinas Venezuela

Satellite view of SVAX